sensor_id;sensor_type;location;lat;lon;timestamp;P1;durP1;ratioP1;P2;durP2;ratioP2
21639;SDS011;10981;45.462;10.974;2023-02-03T00:00:05;62.80;;;34.30;;
21639;SDS011;10981;45.462;10.974;2023-02-03T00:02:37;78.23;;;37.53;;
21639;SDS011;10981;45.462;10.974;2023-02-03T00:05:05;66.00;;;35.17;;
21639;SDS011;10981;45.462;10.974;2023-02-03T00:07:35;75.38;;;37.33;;
21639;SDS011;10981;45.462;10.974;2023-02-03T00:10:05;67.80;;;35.28;;
21639;SDS011;10981;45.462;10.974;2023-02-03T00:12:34;74.88;;;38.53;;
21639;SDS011;10981;45.462;10.974;2023-02-03T00:15:02;68.05;;;37.38;;
21639;SDS011;10981;45.462;10.974;2023-02-03T00:17:31;78.03;;;38.92;;
21639;SDS011;10981;45.462;10.974;2023-02-03T00:19:59;75.07;;;38.00;;
21639;SDS011;10981;45.462;10.974;2023-02-03T00:22:27;79.28;;;40.95;;
21639;SDS011;10981;45.462;10.974;2023-02-03T00:24:55;77.72;;;39.53;;
21639;SDS011;10981;45.462;10.974;2023-02-03T00:27:23;74.80;;;39.38;;
21639;SDS011;10981;45.462;10.974;2023-02-03T00:29:52;81.60;;;41.90;;
21639;SDS011;10981;45.462;10.974;2023-02-03T00:32:20;76.90;;;40.35;;
21639;SDS011;10981;45.462;10.974;2023-02-03T00:34:48;80.38;;;42.08;;
21639;SDS011;10981;45.462;10.974;2023-02-03T00:37:16;87.95;;;45.97;;
21639;SDS011;10981;45.462;10.974;2023-02-03T00:39:45;79.53;;;42.15;;
21639;SDS011;10981;45.462;10.974;2023-02-03T00:42:13;80.43;;;41.88;;
21639;SDS011;10981;45.462;10.974;2023-02-03T00:44:43;75.03;;;42.55;;
21639;SDS011;10981;45.462;10.974;2023-02-03T00:47:11;84.28;;;44.33;;
21639;SDS011;10981;45.462;10.974;2023-02-03T00:49:39;83.35;;;42.55;;
21639;SDS011;10981;45.462;10.974;2023-02-03T00:52:08;93.00;;;47.92;;
21639;SDS011;10981;45.462;10.974;2023-02-03T00:54:37;87.18;;;46.85;;
21639;SDS011;10981;45.462;10.974;2023-02-03T00:57:05;97.88;;;50.58;;
21639;SDS011;10981;45.462;10.974;2023-02-03T00:59:33;95.13;;;52.80;;
21639;SDS011;10981;45.462;10.974;2023-02-03T01:02:02;102.05;;;53.60;;
21639;SDS011;10981;45.462;10.974;2023-02-03T01:04:30;106.45;;;53.30;;
21639;SDS011;10981;45.462;10.974;2023-02-03T01:06:58;100.65;;;52.70;;
21639;SDS011;10981;45.462;10.974;2023-02-03T01:09:32;105.93;;;54.88;;
21639;SDS011;10981;45.462;10.974;2023-02-03T01:12:00;112.03;;;58.20;;
21639;SDS011;10981;45.462;10.974;2023-02-03T01:14:29;112.95;;;57.55;;
21639;SDS011;10981;45.462;10.974;2023-02-03T01:16:58;112.72;;;59.78;;
21639;SDS011;10981;45.462;10.974;2023-02-03T01:19:27;121.18;;;59.67;;
21639;SDS011;10981;45.462;10.974;2023-02-03T01:21:55;121.75;;;60.78;;
21639;SDS011;10981;45.462;10.974;2023-02-03T01:24:23;113.75;;;60.78;;
21639;SDS011;10981;45.462;10.974;2023-02-03T01:26:51;118.78;;;59.03;;
21639;SDS011;10981;45.462;10.974;2023-02-03T01:29:20;120.60;;;61.13;;
21639;SDS011;10981;45.462;10.974;2023-02-03T01:31:48;123.47;;;59.10;;
21639;SDS011;10981;45.462;10.974;2023-02-03T01:34:17;109.45;;;57.70;;
21639;SDS011;10981;45.462;10.974;2023-02-03T01:36:45;107.65;;;56.88;;
21639;SDS011;10981;45.462;10.974;2023-02-03T01:39:14;112.45;;;57.30;;
21639;SDS011;10981;45.462;10.974;2023-02-03T01:41:45;108.35;;;56.42;;
21639;SDS011;10981;45.462;10.974;2023-02-03T01:47:01;115.63;;;59.42;;
21639;SDS011;10981;45.462;10.974;2023-02-03T01:49:34;120.63;;;60.47;;
21639;SDS011;10981;45.462;10.974;2023-02-03T01:52:04;111.78;;;58.42;;
21639;SDS011;10981;45.462;10.974;2023-02-03T01:54:36;110.22;;;59.38;;
21639;SDS011;10981;45.462;10.974;2023-02-03T01:57:53;101.68;;;54.13;;
21639;SDS011;10981;45.462;10.974;2023-02-03T02:00:04;116.30;;;57.55;;
21639;SDS011;10981;45.462;10.974;2023-02-03T02:02:42;109.95;;;57.15;;
21639;SDS011;10981;45.462;10.974;2023-02-03T02:08:12;129.88;;;65.05;;
21639;SDS011;10981;45.462;10.974;2023-02-03T02:10:43;120.90;;;62.45;;
21639;SDS011;10981;45.462;10.974;2023-02-03T02:13:12;118.80;;;62.17;;
21639;SDS011;10981;45.462;10.974;2023-02-03T02:36:23;128.30;;;61.50;;
21639;SDS011;10981;45.462;10.974;2023-02-03T02:39:11;122.93;;;64.57;;
21639;SDS011;10981;45.462;10.974;2023-02-03T02:44:58;134.48;;;67.30;;
21639;SDS011;10981;45.462;10.974;2023-02-03T02:47:41;131.27;;;67.63;;
21639;SDS011;10981;45.462;10.974;2023-02-03T02:50:19;131.55;;;70.00;;
21639;SDS011;10981;45.462;10.974;2023-02-03T02:53:00;140.15;;;70.20;;
21639;SDS011;10981;45.462;10.974;2023-02-03T02:55:31;136.25;;;69.70;;
21639;SDS011;10981;45.462;10.974;2023-02-03T02:58:06;135.68;;;69.75;;
21639;SDS011;10981;45.462;10.974;2023-02-03T03:00:39;136.40;;;69.82;;
21639;SDS011;10981;45.462;10.974;2023-02-03T03:03:13;127.55;;;65.20;;
21639;SDS011;10981;45.462;10.974;2023-02-03T03:05:57;127.10;;;66.47;;
21639;SDS011;10981;45.462;10.974;2023-02-03T03:08:41;131.43;;;65.30;;
21639;SDS011;10981;45.462;10.974;2023-02-03T03:11:16;134.30;;;68.63;;
21639;SDS011;10981;45.462;10.974;2023-02-03T03:13:48;129.68;;;66.65;;
21639;SDS011;10981;45.462;10.974;2023-02-03T03:16:25;144.75;;;70.68;;
21639;SDS011;10981;45.462;10.974;2023-02-03T03:18:57;133.10;;;67.75;;
21639;SDS011;10981;45.462;10.974;2023-02-03T03:21:33;150.27;;;73.13;;
21639;SDS011;10981;45.462;10.974;2023-02-03T03:24:07;154.13;;;76.10;;
21639;SDS011;10981;45.462;10.974;2023-02-03T03:29:17;163.07;;;81.75;;
21639;SDS011;10981;45.462;10.974;2023-02-03T03:31:52;160.95;;;83.13;;
21639;SDS011;10981;45.462;10.974;2023-02-03T03:34:20;168.48;;;84.85;;
21639;SDS011;10981;45.462;10.974;2023-02-03T03:39:41;160.65;;;81.28;;
21639;SDS011;10981;45.462;10.974;2023-02-03T03:42:20;168.98;;;81.63;;
21639;SDS011;10981;45.462;10.974;2023-02-03T03:47:40;159.45;;;78.53;;
21639;SDS011;10981;45.462;10.974;2023-02-03T03:50:26;158.82;;;78.43;;
21639;SDS011;10981;45.462;10.974;2023-02-03T03:52:58;160.75;;;80.25;;
21639;SDS011;10981;45.462;10.974;2023-02-03T03:55:32;164.98;;;83.20;;
21639;SDS011;10981;45.462;10.974;2023-02-03T03:58:04;174.32;;;84.80;;
21639;SDS011;10981;45.462;10.974;2023-02-03T04:00:42;175.15;;;85.65;;
21639;SDS011;10981;45.462;10.974;2023-02-03T04:03:13;172.90;;;84.25;;
21639;SDS011;10981;45.462;10.974;2023-02-03T04:05:54;167.57;;;83.50;;
21639;SDS011;10981;45.462;10.974;2023-02-03T04:08:22;167.52;;;82.30;;
21639;SDS011;10981;45.462;10.974;2023-02-03T04:10:51;158.80;;;79.38;;
21639;SDS011;10981;45.462;10.974;2023-02-03T04:13:19;166.38;;;85.53;;
21639;SDS011;10981;45.462;10.974;2023-02-03T04:15:47;175.25;;;85.47;;
21639;SDS011;10981;45.462;10.974;2023-02-03T04:18:15;167.82;;;84.50;;
21639;SDS011;10981;45.462;10.974;2023-02-03T04:20:44;154.38;;;79.10;;
21639;SDS011;10981;45.462;10.974;2023-02-03T04:23:12;167.88;;;82.93;;
21639;SDS011;10981;45.462;10.974;2023-02-03T04:25:40;166.23;;;82.13;;
21639;SDS011;10981;45.462;10.974;2023-02-03T04:28:11;167.95;;;82.32;;
21639;SDS011;10981;45.462;10.974;2023-02-03T04:30:39;162.52;;;82.97;;
21639;SDS011;10981;45.462;10.974;2023-02-03T04:33:07;173.20;;;81.28;;
21639;SDS011;10981;45.462;10.974;2023-02-03T04:35:35;161.63;;;79.70;;
21639;SDS011;10981;45.462;10.974;2023-02-03T04:38:04;144.20;;;74.22;;
21639;SDS011;10981;45.462;10.974;2023-02-03T04:40:32;144.10;;;71.57;;
21639;SDS011;10981;45.462;10.974;2023-02-03T04:43:04;148.75;;;72.75;;
21639;SDS011;10981;45.462;10.974;2023-02-03T04:45:33;166.45;;;77.55;;
21639;SDS011;10981;45.462;10.974;2023-02-03T04:48:02;159.02;;;77.95;;
21639;SDS011;10981;45.462;10.974;2023-02-03T04:50:33;169.48;;;83.15;;
21639;SDS011;10981;45.462;10.974;2023-02-03T04:53:01;180.98;;;87.13;;
21639;SDS011;10981;45.462;10.974;2023-02-03T04:55:29;187.75;;;92.65;;
21639;SDS011;10981;45.462;10.974;2023-02-03T04:57:58;185.63;;;89.30;;
21639;SDS011;10981;45.462;10.974;2023-02-03T05:00:27;190.75;;;90.28;;
21639;SDS011;10981;45.462;10.974;2023-02-03T05:02:56;196.00;;;95.13;;
21639;SDS011;10981;45.462;10.974;2023-02-03T05:05:24;201.85;;;92.85;;
21639;SDS011;10981;45.462;10.974;2023-02-03T05:07:52;198.18;;;96.13;;
21639;SDS011;10981;45.462;10.974;2023-02-03T05:10:20;198.10;;;95.85;;
21639;SDS011;10981;45.462;10.974;2023-02-03T05:12:49;186.00;;;91.57;;
21639;SDS011;10981;45.462;10.974;2023-02-03T05:15:19;185.27;;;93.38;;
21639;SDS011;10981;45.462;10.974;2023-02-03T05:17:50;192.98;;;91.38;;
21639;SDS011;10981;45.462;10.974;2023-02-03T05:20:19;183.30;;;89.22;;
21639;SDS011;10981;45.462;10.974;2023-02-03T05:22:48;172.85;;;84.40;;
21639;SDS011;10981;45.462;10.974;2023-02-03T05:25:16;171.95;;;84.88;;
21639;SDS011;10981;45.462;10.974;2023-02-03T05:27:44;170.32;;;82.43;;
21639;SDS011;10981;45.462;10.974;2023-02-03T05:30:12;176.85;;;87.47;;
21639;SDS011;10981;45.462;10.974;2023-02-03T05:32:41;177.65;;;83.18;;
21639;SDS011;10981;45.462;10.974;2023-02-03T05:35:09;153.88;;;79.60;;
21639;SDS011;10981;45.462;10.974;2023-02-03T05:37:37;141.48;;;72.40;;
21639;SDS011;10981;45.462;10.974;2023-02-03T05:40:05;152.55;;;77.00;;
21639;SDS011;10981;45.462;10.974;2023-02-03T05:42:53;150.23;;;72.15;;
21639;SDS011;10981;45.462;10.974;2023-02-03T05:45:21;154.77;;;77.43;;
21639;SDS011;10981;45.462;10.974;2023-02-03T05:47:49;156.35;;;73.88;;
21639;SDS011;10981;45.462;10.974;2023-02-03T05:50:20;156.20;;;77.10;;
21639;SDS011;10981;45.462;10.974;2023-02-03T05:52:49;149.88;;;76.95;;
21639;SDS011;10981;45.462;10.974;2023-02-03T05:55:17;159.82;;;79.03;;
21639;SDS011;10981;45.462;10.974;2023-02-03T05:57:46;151.27;;;75.65;;
21639;SDS011;10981;45.462;10.974;2023-02-03T06:00:14;141.82;;;71.50;;
21639;SDS011;10981;45.462;10.974;2023-02-03T06:02:42;147.43;;;76.05;;
21639;SDS011;10981;45.462;10.974;2023-02-03T06:05:11;149.30;;;76.22;;
21639;SDS011;10981;45.462;10.974;2023-02-03T06:07:39;166.57;;;81.65;;
21639;SDS011;10981;45.462;10.974;2023-02-03T06:10:10;174.40;;;81.82;;
21639;SDS011;10981;45.462;10.974;2023-02-03T06:12:38;173.90;;;84.57;;
21639;SDS011;10981;45.462;10.974;2023-02-03T06:15:06;159.75;;;77.90;;
21639;SDS011;10981;45.462;10.974;2023-02-03T06:17:35;158.32;;;78.68;;
21639;SDS011;10981;45.462;10.974;2023-02-03T06:20:04;167.93;;;80.78;;
21639;SDS011;10981;45.462;10.974;2023-02-03T06:22:34;165.85;;;81.85;;
21639;SDS011;10981;45.462;10.974;2023-02-03T06:25:03;152.30;;;74.28;;
21639;SDS011;10981;45.462;10.974;2023-02-03T06:27:31;167.30;;;81.00;;
21639;SDS011;10981;45.462;10.974;2023-02-03T06:29:59;163.63;;;80.75;;
21639;SDS011;10981;45.462;10.974;2023-02-03T06:32:30;164.70;;;80.05;;
21639;SDS011;10981;45.462;10.974;2023-02-03T06:34:59;155.43;;;79.15;;
21639;SDS011;10981;45.462;10.974;2023-02-03T06:37:27;154.88;;;78.85;;
21639;SDS011;10981;45.462;10.974;2023-02-03T06:39:55;163.10;;;78.07;;
21639;SDS011;10981;45.462;10.974;2023-02-03T06:42:23;154.07;;;75.20;;
21639;SDS011;10981;45.462;10.974;2023-02-03T06:44:51;159.00;;;78.90;;
21639;SDS011;10981;45.462;10.974;2023-02-03T06:47:21;160.00;;;80.65;;
21639;SDS011;10981;45.462;10.974;2023-02-03T06:49:49;154.68;;;78.13;;
21639;SDS011;10981;45.462;10.974;2023-02-03T06:52:18;166.05;;;81.97;;
21639;SDS011;10981;45.462;10.974;2023-02-03T06:54:46;159.57;;;79.85;;
21639;SDS011;10981;45.462;10.974;2023-02-03T06:57:14;165.20;;;83.32;;
21639;SDS011;10981;45.462;10.974;2023-02-03T06:59:42;169.85;;;79.20;;
21639;SDS011;10981;45.462;10.974;2023-02-03T07:02:11;170.02;;;81.70;;
21639;SDS011;10981;45.462;10.974;2023-02-03T07:04:39;171.95;;;85.43;;
21639;SDS011;10981;45.462;10.974;2023-02-03T07:07:10;184.52;;;87.32;;
21639;SDS011;10981;45.462;10.974;2023-02-03T07:09:39;177.52;;;86.82;;
21639;SDS011;10981;45.462;10.974;2023-02-03T07:12:10;184.30;;;85.65;;
21639;SDS011;10981;45.462;10.974;2023-02-03T07:14:39;170.13;;;87.65;;
21639;SDS011;10981;45.462;10.974;2023-02-03T07:17:08;176.15;;;84.57;;
21639;SDS011;10981;45.462;10.974;2023-02-03T07:19:36;193.30;;;94.45;;
21639;SDS011;10981;45.462;10.974;2023-02-03T07:22:04;182.77;;;89.95;;
21639;SDS011;10981;45.462;10.974;2023-02-03T07:24:34;175.13;;;84.15;;
21639;SDS011;10981;45.462;10.974;2023-02-03T07:27:02;182.05;;;89.10;;
21639;SDS011;10981;45.462;10.974;2023-02-03T07:29:30;187.85;;;91.88;;
21639;SDS011;10981;45.462;10.974;2023-02-03T07:31:58;180.75;;;87.32;;
21639;SDS011;10981;45.462;10.974;2023-02-03T07:34:28;188.07;;;89.35;;
21639;SDS011;10981;45.462;10.974;2023-02-03T07:36:57;181.18;;;82.88;;
21639;SDS011;10981;45.462;10.974;2023-02-03T07:39:25;191.35;;;88.10;;
21639;SDS011;10981;45.462;10.974;2023-02-03T07:41:53;179.02;;;84.70;;
21639;SDS011;10981;45.462;10.974;2023-02-03T07:44:22;179.25;;;84.72;;
21639;SDS011;10981;45.462;10.974;2023-02-03T07:46:51;177.20;;;83.32;;
21639;SDS011;10981;45.462;10.974;2023-02-03T07:49:19;181.65;;;84.25;;
21639;SDS011;10981;45.462;10.974;2023-02-03T07:51:47;163.52;;;81.10;;
21639;SDS011;10981;45.462;10.974;2023-02-03T07:54:15;197.63;;;88.18;;
21639;SDS011;10981;45.462;10.974;2023-02-03T07:56:43;169.30;;;83.93;;
21639;SDS011;10981;45.462;10.974;2023-02-03T07:59:12;174.93;;;85.28;;
21639;SDS011;10981;45.462;10.974;2023-02-03T08:01:40;173.88;;;84.63;;
21639;SDS011;10981;45.462;10.974;2023-02-03T08:04:08;175.20;;;84.15;;
21639;SDS011;10981;45.462;10.974;2023-02-03T08:06:38;181.05;;;86.28;;
21639;SDS011;10981;45.462;10.974;2023-02-03T08:09:07;176.35;;;83.75;;
21639;SDS011;10981;45.462;10.974;2023-02-03T08:11:35;173.43;;;80.30;;
21639;SDS011;10981;45.462;10.974;2023-02-03T08:14:03;175.82;;;81.15;;
21639;SDS011;10981;45.462;10.974;2023-02-03T08:16:32;174.40;;;84.10;;
21639;SDS011;10981;45.462;10.974;2023-02-03T08:19:00;179.25;;;84.05;;
21639;SDS011;10981;45.462;10.974;2023-02-03T08:21:28;180.23;;;85.65;;
21639;SDS011;10981;45.462;10.974;2023-02-03T08:23:57;184.02;;;85.10;;
21639;SDS011;10981;45.462;10.974;2023-02-03T08:26:25;183.80;;;82.97;;
21639;SDS011;10981;45.462;10.974;2023-02-03T08:28:53;174.50;;;83.72;;
21639;SDS011;10981;45.462;10.974;2023-02-03T08:31:22;182.93;;;85.30;;
21639;SDS011;10981;45.462;10.974;2023-02-03T08:33:50;188.45;;;85.00;;
21639;SDS011;10981;45.462;10.974;2023-02-03T08:36:19;173.23;;;82.78;;
21639;SDS011;10981;45.462;10.974;2023-02-03T08:38:47;175.55;;;82.85;;
21639;SDS011;10981;45.462;10.974;2023-02-03T08:41:18;176.68;;;85.00;;
21639;SDS011;10981;45.462;10.974;2023-02-03T08:43:46;187.57;;;89.60;;
21639;SDS011;10981;45.462;10.974;2023-02-03T08:46:15;167.88;;;83.20;;
21639;SDS011;10981;45.462;10.974;2023-02-03T08:48:43;178.48;;;85.45;;
21639;SDS011;10981;45.462;10.974;2023-02-03T08:51:13;186.40;;;85.75;;
21639;SDS011;10981;45.462;10.974;2023-02-03T08:53:43;187.50;;;90.88;;
21639;SDS011;10981;45.462;10.974;2023-02-03T08:56:11;178.98;;;87.75;;
21639;SDS011;10981;45.462;10.974;2023-02-03T08:58:40;191.88;;;92.60;;
21639;SDS011;10981;45.462;10.974;2023-02-03T09:01:08;198.13;;;92.68;;
21639;SDS011;10981;45.462;10.974;2023-02-03T09:03:39;191.75;;;90.60;;
21639;SDS011;10981;45.462;10.974;2023-02-03T09:06:08;188.02;;;88.15;;
21639;SDS011;10981;45.462;10.974;2023-02-03T09:08:43;186.38;;;90.13;;
21639;SDS011;10981;45.462;10.974;2023-02-03T09:11:13;191.73;;;91.63;;
21639;SDS011;10981;45.462;10.974;2023-02-03T09:13:43;192.15;;;88.95;;
21639;SDS011;10981;45.462;10.974;2023-02-03T09:16:12;198.93;;;91.10;;
21639;SDS011;10981;45.462;10.974;2023-02-03T09:18:44;195.07;;;92.25;;
21639;SDS011;10981;45.462;10.974;2023-02-03T09:21:12;186.07;;;85.70;;
21639;SDS011;10981;45.462;10.974;2023-02-03T09:26:34;180.80;;;88.47;;
21639;SDS011;10981;45.462;10.974;2023-02-03T09:29:03;192.65;;;89.50;;
21639;SDS011;10981;45.462;10.974;2023-02-03T09:31:31;181.27;;;85.10;;
21639;SDS011;10981;45.462;10.974;2023-02-03T09:33:59;179.10;;;82.63;;
21639;SDS011;10981;45.462;10.974;2023-02-03T09:36:27;179.30;;;83.40;;
21639;SDS011;10981;45.462;10.974;2023-02-03T09:38:56;177.50;;;84.38;;
21639;SDS011;10981;45.462;10.974;2023-02-03T09:41:29;182.70;;;85.68;;
21639;SDS011;10981;45.462;10.974;2023-02-03T09:47:22;186.85;;;90.85;;
21639;SDS011;10981;45.462;10.974;2023-02-03T09:52:31;183.50;;;84.60;;
21639;SDS011;10981;45.462;10.974;2023-02-03T09:57:48;180.10;;;84.95;;
21639;SDS011;10981;45.462;10.974;2023-02-03T10:00:30;198.52;;;87.68;;
21639;SDS011;10981;45.462;10.974;2023-02-03T10:03:53;187.82;;;86.68;;
21639;SDS011;10981;45.462;10.974;2023-02-03T10:06:03;180.70;;;87.03;;
21639;SDS011;10981;45.462;10.974;2023-02-03T10:11:56;183.05;;;88.03;;
21639;SDS011;10981;45.462;10.974;2023-02-03T10:14:47;190.70;;;89.35;;
21639;SDS011;10981;45.462;10.974;2023-02-03T10:17:58;191.05;;;93.05;;
21639;SDS011;10981;45.462;10.974;2023-02-03T10:23:06;195.07;;;90.35;;
21639;SDS011;10981;45.462;10.974;2023-02-03T10:25:40;189.30;;;90.72;;
21639;SDS011;10981;45.462;10.974;2023-02-03T10:28:25;199.75;;;90.85;;
21639;SDS011;10981;45.462;10.974;2023-02-03T10:33:27;186.65;;;85.93;;
21639;SDS011;10981;45.462;10.974;2023-02-03T10:36:08;185.45;;;90.70;;
21639;SDS011;10981;45.462;10.974;2023-02-03T10:41:34;198.43;;;93.47;;
21639;SDS011;10981;45.462;10.974;2023-02-03T10:44:03;190.27;;;92.47;;
21639;SDS011;10981;45.462;10.974;2023-02-03T10:46:37;194.52;;;92.40;;
21639;SDS011;10981;45.462;10.974;2023-02-03T10:49:08;204.50;;;94.90;;
21639;SDS011;10981;45.462;10.974;2023-02-03T10:51:48;199.50;;;91.97;;
21639;SDS011;10981;45.462;10.974;2023-02-03T10:54:27;207.27;;;95.80;;
21639;SDS011;10981;45.462;10.974;2023-02-03T10:57:01;202.45;;;94.68;;
21639;SDS011;10981;45.462;10.974;2023-02-03T10:59:42;202.13;;;91.70;;
21639;SDS011;10981;45.462;10.974;2023-02-03T11:07:52;202.20;;;95.40;;
21639;SDS011;10981;45.462;10.974;2023-02-03T11:26:44;201.10;;;90.22;;
21639;SDS011;10981;45.462;10.974;2023-02-03T11:29:33;209.60;;;95.18;;
21639;SDS011;10981;45.462;10.974;2023-02-03T11:32:23;200.00;;;91.72;;
21639;SDS011;10981;45.462;10.974;2023-02-03T11:35:00;199.63;;;87.90;;
21639;SDS011;10981;45.462;10.974;2023-02-03T11:37:42;201.68;;;87.95;;
21639;SDS011;10981;45.462;10.974;2023-02-03T11:45:23;201.77;;;86.80;;
21639;SDS011;10981;45.462;10.974;2023-02-03T11:48:00;202.45;;;86.57;;
21639;SDS011;10981;45.462;10.974;2023-02-03T11:50:39;208.23;;;89.53;;
21639;SDS011;10981;45.462;10.974;2023-02-03T12:07:31;199.48;;;90.13;;
21639;SDS011;10981;45.462;10.974;2023-02-03T12:16:10;190.00;;;87.47;;
21639;SDS011;10981;45.462;10.974;2023-02-03T12:21:43;186.90;;;89.07;;
21639;SDS011;10981;45.462;10.974;2023-02-03T12:29:32;187.48;;;88.50;;
21639;SDS011;10981;45.462;10.974;2023-02-03T12:35:09;196.40;;;90.47;;
21639;SDS011;10981;45.462;10.974;2023-02-03T12:37:54;189.68;;;89.43;;
21639;SDS011;10981;45.462;10.974;2023-02-03T12:48:53;203.10;;;90.95;;
21639;SDS011;10981;45.462;10.974;2023-02-03T12:51:43;199.75;;;93.10;;
21639;SDS011;10981;45.462;10.974;2023-02-03T12:57:15;199.35;;;89.10;;
21639;SDS011;10981;45.462;10.974;2023-02-03T13:00:00;203.32;;;94.10;;
21639;SDS011;10981;45.462;10.974;2023-02-03T13:02:41;199.52;;;89.68;;
21639;SDS011;10981;45.462;10.974;2023-02-03T13:08:12;193.23;;;90.63;;
21639;SDS011;10981;45.462;10.974;2023-02-03T13:10:46;195.88;;;90.88;;
21639;SDS011;10981;45.462;10.974;2023-02-03T13:13:28;195.38;;;92.07;;
21639;SDS011;10981;45.462;10.974;2023-02-03T13:16:04;199.38;;;94.35;;
21639;SDS011;10981;45.462;10.974;2023-02-03T13:18:36;192.98;;;91.53;;
21639;SDS011;10981;45.462;10.974;2023-02-03T13:21:11;198.18;;;90.38;;
21639;SDS011;10981;45.462;10.974;2023-02-03T13:23:42;192.88;;;89.78;;
21639;SDS011;10981;45.462;10.974;2023-02-03T13:29:11;191.30;;;87.10;;
21639;SDS011;10981;45.462;10.974;2023-02-03T13:35:05;192.23;;;91.32;;
21639;SDS011;10981;45.462;10.974;2023-02-03T13:43:45;190.20;;;85.90;;
21639;SDS011;10981;45.462;10.974;2023-02-03T13:46:23;175.00;;;83.75;;
21639;SDS011;10981;45.462;10.974;2023-02-03T13:48:58;181.10;;;87.43;;
21639;SDS011;10981;45.462;10.974;2023-02-03T13:51:33;181.35;;;83.68;;
21639;SDS011;10981;45.462;10.974;2023-02-03T13:54:06;181.23;;;84.35;;
21639;SDS011;10981;45.462;10.974;2023-02-03T13:56:47;186.45;;;87.35;;
21639;SDS011;10981;45.462;10.974;2023-02-03T14:04:53;185.32;;;85.85;;
21639;SDS011;10981;45.462;10.974;2023-02-03T14:07:30;175.15;;;83.00;;
21639;SDS011;10981;45.462;10.974;2023-02-03T14:25:21;179.88;;;84.43;;
21639;SDS011;10981;45.462;10.974;2023-02-03T14:27:59;192.02;;;87.13;;
21639;SDS011;10981;45.462;10.974;2023-02-03T14:30:31;185.63;;;87.20;;
21639;SDS011;10981;45.462;10.974;2023-02-03T14:33:20;182.50;;;84.50;;
21639;SDS011;10981;45.462;10.974;2023-02-03T14:36:24;189.70;;;89.50;;
21639;SDS011;10981;45.462;10.974;2023-02-03T14:38:54;188.52;;;86.35;;
21639;SDS011;10981;45.462;10.974;2023-02-03T14:41:38;186.80;;;86.63;;
21639;SDS011;10981;45.462;10.974;2023-02-03T14:50:30;189.05;;;85.82;;
21639;SDS011;10981;45.462;10.974;2023-02-03T14:58:43;192.05;;;84.38;;
21639;SDS011;10981;45.462;10.974;2023-02-03T15:12:14;189.63;;;84.45;;
21639;SDS011;10981;45.462;10.974;2023-02-03T15:14:49;190.30;;;83.45;;
21639;SDS011;10981;45.462;10.974;2023-02-03T15:17:22;191.52;;;81.97;;
21639;SDS011;10981;45.462;10.974;2023-02-03T15:19:52;198.73;;;84.30;;
21639;SDS011;10981;45.462;10.974;2023-02-03T15:22:22;197.45;;;83.30;;
21639;SDS011;10981;45.462;10.974;2023-02-03T15:24:55;194.48;;;86.38;;
21639;SDS011;10981;45.462;10.974;2023-02-03T15:27:31;191.10;;;83.15;;
21639;SDS011;10981;45.462;10.974;2023-02-03T15:30:13;191.02;;;83.60;;
21639;SDS011;10981;45.462;10.974;2023-02-03T15:35:35;194.82;;;87.55;;
21639;SDS011;10981;45.462;10.974;2023-02-03T15:38:08;221.90;;;92.65;;
21639;SDS011;10981;45.462;10.974;2023-02-03T15:40:56;211.88;;;89.90;;
21639;SDS011;10981;45.462;10.974;2023-02-03T15:43:35;213.63;;;92.95;;
21639;SDS011;10981;45.462;10.974;2023-02-03T15:48:50;206.65;;;91.03;;
21639;SDS011;10981;45.462;10.974;2023-02-03T15:51:25;215.35;;;93.25;;
21639;SDS011;10981;45.462;10.974;2023-02-03T15:54:02;214.82;;;94.10;;
21639;SDS011;10981;45.462;10.974;2023-02-03T15:59:18;221.80;;;95.28;;
21639;SDS011;10981;45.462;10.974;2023-02-03T16:01:50;210.88;;;89.30;;
21639;SDS011;10981;45.462;10.974;2023-02-03T16:04:22;224.15;;;93.65;;
21639;SDS011;10981;45.462;10.974;2023-02-03T16:06:52;226.55;;;93.25;;
21639;SDS011;10981;45.462;10.974;2023-02-03T16:09:33;222.98;;;91.93;;
21639;SDS011;10981;45.462;10.974;2023-02-03T16:14:44;225.25;;;93.95;;
21639;SDS011;10981;45.462;10.974;2023-02-03T16:17:23;230.38;;;96.60;;
21639;SDS011;10981;45.462;10.974;2023-02-03T16:22:40;235.65;;;100.20;;
21639;SDS011;10981;45.462;10.974;2023-02-03T16:27:54;245.52;;;103.90;;
21639;SDS011;10981;45.462;10.974;2023-02-03T16:34:12;250.73;;;107.25;;
21639;SDS011;10981;45.462;10.974;2023-02-03T16:37:11;253.10;;;102.65;;
21639;SDS011;10981;45.462;10.974;2023-02-03T16:40:05;252.40;;;107.30;;
21639;SDS011;10981;45.462;10.974;2023-02-03T16:42:52;242.40;;;104.03;;
21639;SDS011;10981;45.462;10.974;2023-02-03T16:45:39;242.13;;;101.43;;
21639;SDS011;10981;45.462;10.974;2023-02-03T16:48:26;235.95;;;100.93;;
21639;SDS011;10981;45.462;10.974;2023-02-03T16:51:14;250.88;;;105.68;;
21639;SDS011;10981;45.462;10.974;2023-02-03T16:53:43;240.10;;;105.22;;
21639;SDS011;10981;45.462;10.974;2023-02-03T16:56:14;241.15;;;102.60;;
21639;SDS011;10981;45.462;10.974;2023-02-03T16:58:44;239.18;;;100.60;;
21639;SDS011;10981;45.462;10.974;2023-02-03T17:01:13;238.18;;;101.75;;
21639;SDS011;10981;45.462;10.974;2023-02-03T17:03:41;233.23;;;100.18;;
21639;SDS011;10981;45.462;10.974;2023-02-03T17:06:11;229.70;;;100.90;;
21639;SDS011;10981;45.462;10.974;2023-02-03T17:08:41;240.30;;;103.70;;
21639;SDS011;10981;45.462;10.974;2023-02-03T17:11:16;245.35;;;104.70;;
21639;SDS011;10981;45.462;10.974;2023-02-03T17:13:46;241.80;;;104.80;;
21639;SDS011;10981;45.462;10.974;2023-02-03T17:16:19;234.05;;;99.35;;
21639;SDS011;10981;45.462;10.974;2023-02-03T17:18:49;235.43;;;102.13;;
21639;SDS011;10981;45.462;10.974;2023-02-03T17:21:21;229.10;;;96.80;;
21639;SDS011;10981;45.462;10.974;2023-02-03T17:23:51;240.25;;;101.28;;
21639;SDS011;10981;45.462;10.974;2023-02-03T17:26:20;239.82;;;101.88;;
21639;SDS011;10981;45.462;10.974;2023-02-03T17:28:48;236.65;;;100.65;;
21639;SDS011;10981;45.462;10.974;2023-02-03T17:31:19;235.75;;;100.82;;
21639;SDS011;10981;45.462;10.974;2023-02-03T17:33:50;241.13;;;102.32;;
21639;SDS011;10981;45.462;10.974;2023-02-03T17:36:19;252.50;;;106.65;;
21639;SDS011;10981;45.462;10.974;2023-02-03T17:38:53;240.00;;;105.68;;
21639;SDS011;10981;45.462;10.974;2023-02-03T17:41:40;242.02;;;103.50;;
21639;SDS011;10981;45.462;10.974;2023-02-03T17:44:28;234.40;;;103.60;;
21639;SDS011;10981;45.462;10.974;2023-02-03T17:47:14;244.70;;;104.15;;
21639;SDS011;10981;45.462;10.974;2023-02-03T17:50:00;239.13;;;105.22;;
21639;SDS011;10981;45.462;10.974;2023-02-03T17:52:46;248.63;;;103.90;;
21639;SDS011;10981;45.462;10.974;2023-02-03T17:55:31;260.15;;;108.38;;